Weather observations for the past three days for
Imperial Beach Naval Outlying Field - Ream Field
Metric (Imperial)
Date Time (pdt) Wind (kph) Vis. (km) Weather Sky Cond. Temperature (ºC) Relative Humidity Wind Chill (°C) Heat Index (°C) Pressure Precipitation (cm)
Air Dwpt 6 hour altimeter (cm) sea level (mb) 1 hr 3 hr 6 hr
Max. Min.
09 14:53 SW 19 16.09 Overcast OVC014 18.9 13.3 70% 76.02 1013.4
09 13:53 SW 17 G 31 16.09 Fair CLR 18.9 13.3 70% 76.05 1013.7
09 12:53 SW 19 16.09 Fair CLR 19.4 13.3 68% 76.05 1013.9
09 11:53 SW 15 16.09 Fair CLR 19.4 13.9 71% 76.07 1014.1
09 10:53 SW 15 16.09 Fair CLR 19.4 13.3 19.4 16.1 68% 76.07 1014.1
09 09:53 W 11 16.09 Overcast OVC014 18.3 13.9 76% 76.07 1014.2
09 08:53 W 11 16.09 Overcast OVC012 16.7 13.9 84% 76.07 1014.2
09 07:53 SW 7 16.09 Overcast OVC012 16.7 13.3 80% 76.07 1014.1
09 06:53 SW 6 16.09 Overcast OVC011 16.1 13.9 87% 76.07 1014.1
09 05:53 NW 6 16.09 Overcast OVC011 16.1 13.9 87% 76.05 1013.7
09 04:53 SW 7 0.00 Overcast OVC010 16.7 13.9 17.2 16.7 84% 76.02 1013.6
09 02:53 NW 9 0.00 Overcast OVC010 16.7 14.4 86% 76.05 1013.8
08 23:53 W 11 0.00 Overcast OVC011 17.2 14.4 84% 76.15 1015.0
08 22:53 W 13 0.00 Overcast OVC011 17.2 14.4 18.9 17.2 84% 76.15 1015.1
08 21:53 W 9 0.00 Overcast OVC011 17.2 15 87% 76.15 1015.2
08 19:53 W 11 16.09 Overcast OVC011 17.2 14.4 84% 76.1 1014.4
08 18:53 W 11 16.09 Fair CLR 17.8 14.4 81% 76.07 1014.1
08 17:53 W 11 16.09 Mostly Cloudy BKN012 18.3 14.4 78% 76.07 1014.0
08 17:23 W 11 16.09 Mostly Cloudy BKN012 18.3 14.4 78% 76.07 1014.0
08 16:53 W 13 16.09 Mostly Cloudy BKN012 18.3 14.4 20.6 18.3 78% 76.1 1014.3
08 15:53 W 15 16.09 Mostly Cloudy BKN012 19.4 14.4 73% 76.12 1014.7
08 14:53 W 20 16.09 A Few Clouds FEW018 20 14.4 70% 76.15 1015.1
08 13:53 W 15 G 31 16.09 A Few Clouds FEW018 20 13.9 68% 76.15 1015.3
08 12:53 W 19 14.48 Fair CLR 20 13.9 68% 76.17 1015.5
08 11:53 W 17 16.09 A Few Clouds FEW018 19.4 13.9 71% 76.2 1016.0
08 10:53 W 15 16.09 Mostly Cloudy BKN016 BKN022 18.9 13.9 19.4 16.1 73% 76.25 1016.4
08 09:53 W 9 16.09 Overcast BKN015 OVC022 17.8 13.9 78% 76.25 1016.6
08 08:53 W 7 16.09 Overcast BKN016 OVC022 16.7 13.3 80% 76.28 1016.7
08 07:53 SW 7 16.09 Overcast BKN015 OVC020 16.1 13.3 84% 76.28 1016.9
08 06:53 SW 7 16.09 Overcast OVC014 16.1 13.3 84% 76.25 1016.5
08 05:53 SW 9 16.09 Overcast OVC013 16.1 13.3 84% 76.23 1016.0
08 04:53 SW 9 0.00 Overcast OVC013 16.1 13.3 16.7 16.1 84% 76.23 1016.0
08 03:53 SW 7 0.00 Overcast OVC011 16.1 13.9 87% 76.2 1015.9
08 01:53 S 6 0.00 Overcast OVC013 16.1 13.9 87% 76.23 1016.2
08 00:53 SW 9 0.00 Overcast OVC013 16.1 13.3 84% 76.28 1016.7
07 23:53 SW 7 0.00 Overcast OVC012 16.1 13.3 84% 76.3 1017.0
07 22:53 SW 7 16.09 Overcast OVC012 16.7 13.9 18.3 16.7 84% 76.3 1017.1
07 21:53 S 7 16.09 Overcast OVC012 16.7 13.9 84% 76.3 1017.0
07 20:53 SW 6 16.09 Overcast OVC011 16.7 13.9 84% 76.25 1016.3
07 19:53 S 7 16.09 Mostly Cloudy BKN012 16.7 13.9 84% 76.2 1015.7
07 18:53 SW 11 16.09 Mostly Cloudy BKN013 17.2 13.9 81% 76.15 1015.2
07 17:53 W 9 16.09 Mostly Cloudy BKN013 17.8 13.9 78% 76.15 1015.1
07 16:53 W 13 16.09 Mostly Cloudy BKN013 18.3 13.3 20.6 18.3 73% 76.15 1015.3
07 15:53 W 17 G 31 16.09 Mostly Cloudy BKN012 18.9 13.9 73% 76.15 1015.2
07 14:53 SW 22 16.09 Partly Cloudy SCT018 19.4 13.9 71% 76.2 1015.7
07 13:53 W 19 16.09 A Few Clouds FEW018 20 13.9 68% 76.23 1016.1
07 12:53 W 20 16.09 A Few Clouds FEW018 20 13.9 68% 76.23 1016.2
07 11:53 W 19 16.09 A Few Clouds FEW018 20 13.3 65% 76.25 1016.6
07 10:53 W 15 16.09 Partly Cloudy SCT014 18.9 13.3 18.9 11.7 70% 76.28 1016.8
07 09:53 NW 11 16.09 Mostly Cloudy BKN014 17.8 13.3 75% 76.3 1017.1
07 08:53 W 6 16.09 Mostly Cloudy BKN014 17.2 12.8 76% 76.3 1017.3
07 07:53 Calm 16.09 Mostly Cloudy BKN014 16.1 13.3 84% 76.3 1017.1
07 06:53 E 6 16.09 Mostly Cloudy BKN014 13.3 12.8 97% 76.28 1016.8
07 05:53 E 7 16.09 Fair CLR 12.2 11.7 97% 76.25 1016.4
07 04:53 E 7 0.00 Fair CLR 11.7 11.1 16.1 11.1 96% 76.23 1016.3
07 03:53 Calm 0.00 Partly Cloudy SCT015 12.8 12.8 100% 76.25 1016.4
07 02:53 Calm 0.00 A Few Clouds FEW014 13.3 13.3 100% 76.25 1016.6
07 01:53 Calm 0.00 Fair CLR 13.9 13.3 96% 76.3 1017.0
06 23:53 Calm 0.00 Fair CLR 13.9 12.8 93% 76.35 1017.8
06 22:53 W 7 16.09 A Few Clouds FEW018 16.1 13.9 19.4 15.6 87% 76.35 1018.0
06 21:53 W 11 16.09 A Few Clouds FEW015 16.7 13.9 84% 76.35 1017.9
06 20:53 W 13 16.09 A Few Clouds FEW015 17.2 13.9 81% 76.35 1017.7
06 19:53 W 13 16.09 A Few Clouds FEW020 FEW030 17.2 13.9 81% 76.3 1017.1
06 18:53 W 17 16.09 A Few Clouds FEW020 FEW030 17.8 13.9 78% 76.28 1016.8
06 17:53 W 19 16.09 A Few Clouds FEW028 18.9 13.9 73% 76.28 1016.7
Date Time (pdt) Wind (kph) Vis. (km) Weather Sky Cond. Air Dwpt Max. Min. Relative Humidity Wind Chill (°C) Heat Index (°C) altimeter (cm) sea level (mb) 1 hr 3 hr 6 hr
6 hour
Temperature (ºC) Pressure Precipitation (cm)